createdAt,value
2019-01-12T00:00:37.774Z,1019.35
2019-01-12T00:01:47.221Z,1019.32
2019-01-12T00:02:56.168Z,1019.29
2019-01-12T00:04:05.591Z,1019.28
2019-01-12T00:05:15.020Z,1019.27
2019-01-12T00:06:23.947Z,1019.27
2019-01-12T00:07:33.142Z,1019.31
2019-01-12T00:08:42.333Z,1019.35
2019-01-12T00:09:51.530Z,1019.3
2019-01-12T00:11:00.617Z,1019.32
2019-01-12T00:12:10.115Z,1019.34
2019-01-12T00:13:19.329Z,1019.35
2019-01-12T00:14:28.780Z,1019.3
2019-01-12T00:15:38.223Z,1019.33
2019-01-12T00:16:47.674Z,1019.26
2019-01-12T00:17:56.895Z,1019.25
2019-01-12T00:19:06.113Z,1019.27
2019-01-12T00:20:15.579Z,1019.28
2019-01-12T00:21:25.120Z,1019.28
2019-01-12T00:22:34.332Z,1019.26
2019-01-12T00:23:43.795Z,1019.28
2019-01-12T00:24:53.210Z,1019.28
2019-01-12T00:26:02.653Z,1019.26
2019-01-12T00:27:12.101Z,1019.24
2019-01-12T00:28:21.307Z,1019.23
2019-01-12T00:29:30.523Z,1019.23
2019-01-12T00:30:39.986Z,1019.21
2019-01-12T00:31:49.176Z,1019.23
2019-01-12T00:32:58.383Z,1019.2
2019-01-12T00:34:07.074Z,1019.18
2019-01-12T00:35:16.259Z,1019.19
2019-01-12T00:36:25.708Z,1019.19
2019-01-12T00:37:35.122Z,1019.19
2019-01-12T00:38:44.067Z,1019.17
2019-01-12T00:39:53.497Z,1019.16
2019-01-12T00:41:02.688Z,1019.15
2019-01-12T00:42:14.274Z,1019.17
2019-01-12T00:43:23.465Z,1019.17
2019-01-12T00:44:32.905Z,1019.21
2019-01-12T00:45:42.386Z,1019.18
2019-01-12T00:46:51.577Z,1019.16
2019-01-12T00:48:00.758Z,1019.19
2019-01-12T00:49:10.463Z,1019.17
2019-01-12T00:50:19.384Z,1019.18
2019-01-12T00:51:28.297Z,1019.15
2019-01-12T00:52:37.724Z,1019.18
2019-01-12T00:53:46.940Z,1019.15
2019-01-12T00:54:55.658Z,1019.08
2019-01-12T00:56:05.129Z,1019.11
2019-01-12T00:57:15.099Z,1019.11
2019-01-12T00:58:24.304Z,1019.13
2019-01-12T00:59:33.748Z,1019.09
2019-01-12T01:00:42.677Z,1019.12
2019-01-12T01:01:51.862Z,1019.11
2019-01-12T01:03:01.036Z,1019.11
2019-01-12T01:04:10.232Z,1019.08
2019-01-12T01:05:19.919Z,1019.1
2019-01-12T01:06:28.847Z,1019.07
2019-01-12T01:07:37.774Z,1019.11
2019-01-12T01:08:47.691Z,1019.11
2019-01-12T01:09:57.122Z,1019.16
2019-01-12T01:11:06.571Z,1019.14
2019-01-12T01:12:16.268Z,1019.13
2019-01-12T01:13:25.707Z,1019.08
2019-01-12T01:14:34.902Z,1019.13
2019-01-12T01:15:44.082Z,1019.04
2019-01-12T01:16:53.055Z,1019.08
2019-01-12T01:18:02.497Z,1019.13
2019-01-12T01:19:12.201Z,1019.1
2019-01-12T01:20:22.165Z,1019.14
2019-01-12T01:21:31.590Z,1019.13
2019-01-12T01:22:40.790Z,1019.1
2019-01-12T01:23:50.006Z,1019.2
2019-01-12T01:24:59.227Z,1019.16
2019-01-12T01:26:08.419Z,1019.2
2019-01-12T01:27:17.617Z,1019.17
2019-01-12T01:28:26.808Z,1019.19
2019-01-12T01:29:35.985Z,1019.18
2019-01-12T01:30:45.175Z,1019.19
2019-01-12T01:31:54.634Z,1019.22
2019-01-12T01:33:03.813Z,1019.19
2019-01-12T01:34:13.507Z,1019.16
2019-01-12T01:35:22.690Z,1019.15
2019-01-12T01:36:31.909Z,1019.17
2019-01-12T01:37:41.114Z,1019.22
2019-01-12T01:38:50.291Z,1019.19
2019-01-12T01:39:59.485Z,1019.18
2019-01-12T01:41:08.650Z,1019.19
2019-01-12T01:42:18.087Z,1019.22
2019-01-12T01:43:27.280Z,1019.2
2019-01-12T01:44:36.490Z,1019.21
2019-01-12T01:45:45.951Z,1019.22
2019-01-12T01:46:55.378Z,1019.2
2019-01-12T01:48:04.806Z,1019.22
2019-01-12T01:49:13.987Z,1019.23
2019-01-12T01:50:23.676Z,1019.19
2019-01-12T01:51:32.873Z,1019.16
2019-01-12T01:52:42.064Z,1019.25
2019-01-12T01:53:51.390Z,1019.22
2019-01-12T01:55:00.623Z,1019.17
2019-01-12T01:56:09.587Z,1019.22
2019-01-12T01:57:18.803Z,1019.22
2019-01-12T01:58:27.996Z,1019.22
2019-01-12T01:59:37.402Z,1019.17
2019-01-12T02:00:46.855Z,1019.18
2019-01-12T02:01:56.292Z,1019.21
2019-01-12T02:03:06.016Z,1019.18
2019-01-12T02:04:15.450Z,1019.14
2019-01-12T02:05:24.912Z,1019.16
2019-01-12T02:06:34.584Z,1019.16
2019-01-12T02:07:44.051Z,1019.19
2019-01-12T02:08:53.478Z,1019.13
2019-01-12T02:10:02.686Z,1019.17
2019-01-12T02:11:12.419Z,1019.12
2019-01-12T02:12:22.194Z,1019.11
2019-01-12T02:13:31.376Z,1019.07
2019-01-12T02:14:40.821Z,1019.15
2019-01-12T02:15:50.012Z,1019.07
2019-01-12T02:16:58.923Z,1019.07
2019-01-12T02:18:08.096Z,1019.09
2019-01-12T02:19:17.272Z,1019.08
2019-01-12T02:20:26.472Z,1019.12
2019-01-12T02:21:35.648Z,1019.07
2019-01-12T02:22:45.321Z,1019.06
2019-01-12T02:23:54.516Z,1019.02
2019-01-12T02:25:03.995Z,1019.04
2019-01-12T02:26:13.669Z,1019.09
2019-01-12T02:27:23.111Z,1019.07
2019-01-12T02:28:32.302Z,1019.08
2019-01-12T02:29:41.279Z,1019.09
2019-01-12T02:30:50.229Z,1019.08
2019-01-12T02:31:59.666Z,1019.04
2019-01-12T02:33:09.121Z,1019.06
2019-01-12T02:34:18.559Z,1019.03
2019-01-12T02:35:27.784Z,1019.01
2019-01-12T02:36:37.251Z,1018.99
2019-01-12T02:37:46.699Z,1019
2019-01-12T02:38:56.145Z,1018.94
2019-01-12T02:40:05.602Z,1019
2019-01-12T02:41:15.046Z,1018.96
2019-01-12T02:42:25.025Z,1018.98
2019-01-12T02:43:34.474Z,1018.97
2019-01-12T02:44:43.940Z,1018.96
2019-01-12T02:45:53.391Z,1018.99
2019-01-12T02:47:03.065Z,1018.98
2019-01-12T02:48:12.247Z,1018.93
2019-01-12T02:49:21.987Z,1018.97
2019-01-12T02:50:31.179Z,1018.89
2019-01-12T02:51:40.875Z,1018.92
2019-01-12T02:52:50.552Z,1018.94
2019-01-12T02:54:00.032Z,1018.89
2019-01-12T02:55:09.961Z,1018.91
2019-01-12T02:56:19.631Z,1018.86
2019-01-12T02:57:28.833Z,1018.83
2019-01-12T02:58:38.279Z,1018.86
2019-01-12T02:59:47.982Z,1018.8
2019-01-12T03:00:56.668Z,1018.82
2019-01-12T03:02:06.362Z,1018.77
2019-01-12T03:03:15.307Z,1018.74
2019-01-12T03:04:24.763Z,1018.78
2019-01-12T03:05:34.458Z,1018.77
2019-01-12T03:06:43.647Z,1018.77
2019-01-12T03:07:53.349Z,1018.78
2019-01-12T03:09:02.835Z,1018.77
2019-01-12T03:10:12.574Z,1018.73
2019-01-12T03:11:21.299Z,1018.73
2019-01-12T03:12:30.219Z,1018.74
2019-01-12T03:13:39.419Z,1018.75
2019-01-12T03:14:49.123Z,1018.74
2019-01-12T03:15:58.050Z,1018.71
2019-01-12T03:17:07.993Z,1018.71
2019-01-12T03:18:17.437Z,1018.69
2019-01-12T03:19:26.622Z,1018.7
2019-01-12T03:20:36.295Z,1018.72
2019-01-12T03:21:46.011Z,1018.68
2019-01-12T03:22:55.959Z,1018.71
2019-01-12T03:24:05.648Z,1018.7
2019-01-12T03:25:18.108Z,1018.7
2019-01-12T03:26:28.024Z,1018.67
2019-01-12T03:27:36.956Z,1018.68
2019-01-12T03:28:46.401Z,1018.61
2019-01-12T03:29:55.617Z,1018.59
2019-01-12T03:31:05.276Z,1018.59
2019-01-12T03:32:14.543Z,1018.55
2019-01-12T03:33:24.254Z,1018.55
2019-01-12T03:34:33.809Z,1018.56
2019-01-12T03:35:43.490Z,1018.54
2019-01-12T03:36:52.695Z,1018.5
2019-01-12T03:38:01.912Z,1018.51
2019-01-12T03:39:11.649Z,1018.51
2019-01-12T03:40:21.584Z,1018.48
2019-01-12T03:41:30.536Z,1018.44
2019-01-12T03:42:40.234Z,1018.44
2019-01-12T03:43:49.701Z,1018.41
2019-01-12T03:44:59.172Z,1018.45
2019-01-12T03:46:08.128Z,1018.45
2019-01-12T03:47:17.805Z,1018.41
2019-01-12T03:48:27.545Z,1018.39
2019-01-12T03:49:36.750Z,1018.43
2019-01-12T03:50:45.922Z,1018.41
2019-01-12T03:51:54.854Z,1018.39
2019-01-12T03:53:03.542Z,1018.38
2019-01-12T03:54:12.733Z,1018.35
2019-01-12T03:55:25.656Z,1018.39
2019-01-12T03:56:34.852Z,1018.41
2019-01-12T03:57:43.808Z,1018.41
2019-01-12T03:58:53.009Z,1018.4
2019-01-12T04:00:02.676Z,1018.36
2019-01-12T04:01:11.859Z,1018.42
2019-01-12T04:02:21.046Z,1018.34
2019-01-12T04:03:30.247Z,1018.42
2019-01-12T04:04:39.692Z,1018.35
2019-01-12T04:05:49.131Z,1018.37
2019-01-12T04:06:58.321Z,1018.38
2019-01-12T04:08:07.521Z,1018.36
2019-01-12T04:09:16.732Z,1018.33
2019-01-12T04:10:26.157Z,1018.36
2019-01-12T04:11:35.095Z,1018.31
2019-01-12T04:12:44.518Z,1018.31
2019-01-12T04:13:53.973Z,1018.31
2019-01-12T04:15:03.159Z,1018.31
2019-01-12T04:16:12.605Z,1018.32
2019-01-12T04:17:22.283Z,1018.32
2019-01-12T04:18:31.476Z,1018.3
2019-01-12T04:19:41.146Z,1018.26
2019-01-12T04:20:51.088Z,1018.24
2019-01-12T04:22:00.022Z,1018.25
2019-01-12T04:23:09.197Z,1018.22
2019-01-12T04:24:18.633Z,1018.22
2019-01-12T04:25:33.461Z,1018.2
2019-01-12T04:26:43.450Z,1018.19
2019-01-12T04:27:52.626Z,1018.18
2019-01-12T04:29:02.115Z,1018.18
2019-01-12T04:30:11.052Z,1018.21
2019-01-12T04:31:20.763Z,1018.18
2019-01-12T04:32:29.676Z,1018.18
2019-01-12T04:33:38.864Z,1018.12
2019-01-12T04:34:48.047Z,1018.18
2019-01-12T04:35:57.743Z,1018.2
2019-01-12T04:37:07.682Z,1018.17
2019-01-12T04:38:17.377Z,1018.14
2019-01-12T04:39:26.582Z,1018.2
2019-01-12T04:40:36.004Z,1018.17
2019-01-12T04:41:45.680Z,1018.2
2019-01-12T04:42:55.360Z,1018.19
2019-01-12T04:44:05.048Z,1018.18
2019-01-12T04:45:14.497Z,1018.19
2019-01-12T04:46:23.688Z,1018.18
2019-01-12T04:47:33.147Z,1018.17
2019-01-12T04:48:42.375Z,1018.18
2019-01-12T04:49:51.563Z,1018.15
2019-01-12T04:51:00.762Z,1018.17
2019-01-12T04:52:10.212Z,1018.14
2019-01-12T04:53:19.905Z,1018.13
2019-01-12T04:54:29.353Z,1018.16
2019-01-12T04:55:41.456Z,1018.16
2019-01-12T04:56:51.202Z,1018.17
2019-01-12T04:58:01.119Z,1018.13
2019-01-12T04:59:10.570Z,1018.12
2019-01-12T05:00:20.518Z,1018.11
2019-01-12T05:01:29.976Z,1018.14
2019-01-12T05:02:39.422Z,1018.14
2019-01-12T05:03:48.864Z,1018.11
2019-01-12T05:04:58.301Z,1018.14
2019-01-12T05:06:07.926Z,1018.12
2019-01-12T05:07:17.387Z,1018.11
2019-01-12T05:08:26.934Z,1018.1
2019-01-12T05:09:36.394Z,1018.09
2019-01-12T05:10:46.093Z,1018.17
2019-01-12T05:11:55.826Z,1018.17
2019-01-12T05:13:05.755Z,1018.15
2019-01-12T05:14:15.198Z,1018.14
2019-01-12T05:15:24.368Z,1018.16
2019-01-12T05:16:33.307Z,1018.15
2019-01-12T05:17:42.763Z,1018.14
2019-01-12T05:18:51.962Z,1018.17
2019-01-12T05:20:01.639Z,1018.17
2019-01-12T05:21:11.327Z,1018.13
2019-01-12T05:22:21.059Z,1018.08
2019-01-12T05:23:30.752Z,1018.1
2019-01-12T05:24:40.199Z,1018.07
2019-01-12T05:25:49.482Z,1018.1
2019-01-12T05:26:58.719Z,1018.1
2019-01-12T05:28:07.714Z,1018.09
2019-01-12T05:29:16.654Z,1018.07
2019-01-12T05:30:26.090Z,1018.11
2019-01-12T05:31:35.299Z,1018.09
2019-01-12T05:32:45.006Z,1018.11
2019-01-12T05:33:54.718Z,1018.08
2019-01-12T05:35:04.406Z,1018.08
2019-01-12T05:36:13.835Z,1018.12
2019-01-12T05:37:22.544Z,1018.15
2019-01-12T05:38:32.475Z,1018.08
2019-01-12T05:39:41.663Z,1018.15
2019-01-12T05:40:50.881Z,1018.16
2019-01-12T05:41:59.857Z,1018.19
2019-01-12T05:43:09.544Z,1018.21
2019-01-12T05:44:21.129Z,1018.18
2019-01-12T05:45:30.584Z,1018.2
2019-01-12T05:46:39.532Z,1018.21
2019-01-12T05:47:49.001Z,1018.17
2019-01-12T05:48:58.716Z,1018.21
2019-01-12T05:50:07.892Z,1018.2
2019-01-12T05:51:17.406Z,1018.21
2019-01-12T05:52:26.829Z,1018.17
2019-01-12T05:53:36.259Z,1018.18
2019-01-12T05:54:45.444Z,1018.17
2019-01-12T05:55:57.180Z,1018.16
2019-01-12T05:57:08.423Z,1018.17
2019-01-12T05:58:17.877Z,1018.2
2019-01-12T05:59:27.048Z,1018.17
2019-01-12T06:00:36.504Z,1018.19
2019-01-12T06:01:45.700Z,1018.14
2019-01-12T06:02:55.135Z,1018.13
2019-01-12T06:04:04.072Z,1018.19
2019-01-12T06:05:13.010Z,1018.14
2019-01-12T06:06:22.433Z,1018.17
2019-01-12T06:07:31.848Z,1018.16
2019-01-12T06:08:41.033Z,1018.14
2019-01-12T06:09:50.471Z,1018.17
2019-01-12T06:10:59.677Z,1018.14
2019-01-12T06:12:09.107Z,1018.11
2019-01-12T06:13:18.034Z,1018.14
2019-01-12T06:14:27.202Z,1018.12
2019-01-12T06:15:36.903Z,1018.13
2019-01-12T06:16:46.345Z,1018.18
2019-01-12T06:17:55.286Z,1018.16
2019-01-12T06:19:04.979Z,1018.16
2019-01-12T06:20:14.679Z,1018.13
2019-01-12T06:21:23.674Z,1018.18
2019-01-12T06:22:33.118Z,1018.12
2019-01-12T06:23:42.805Z,1018.14
2019-01-12T06:24:52.234Z,1018.13
2019-01-12T06:26:03.942Z,1018.11
2019-01-12T06:27:13.825Z,1018.1
2019-01-12T06:28:23.520Z,1018.08
2019-01-12T06:29:32.952Z,1018.07
2019-01-12T06:30:42.371Z,1018.09
2019-01-12T06:31:51.067Z,1018.08
2019-01-12T06:33:00.238Z,1018.13
2019-01-12T06:34:09.427Z,1018.07
2019-01-12T06:35:18.865Z,1018.03
2019-01-12T06:36:27.555Z,1018.04
2019-01-12T06:37:37.442Z,1017.97
2019-01-12T06:38:47.142Z,1017.98
2019-01-12T06:39:56.825Z,1018.02
2019-01-12T06:41:06.513Z,1018.01
2019-01-12T06:42:15.961Z,1018.01
2019-01-12T06:43:25.413Z,1018.01
2019-01-12T06:44:34.905Z,1017.98
2019-01-12T06:45:44.392Z,1017.99
2019-01-12T06:46:54.162Z,1017.95
2019-01-12T06:48:03.829Z,1017.92
2019-01-12T06:49:13.025Z,1017.93
2019-01-12T06:50:22.482Z,1017.91
2019-01-12T06:51:32.207Z,1017.86
2019-01-12T06:52:41.400Z,1017.89
2019-01-12T06:53:50.823Z,1017.85
2019-01-12T06:55:00.253Z,1017.87
2019-01-12T06:56:10.885Z,1017.88
2019-01-12T06:57:20.480Z,1017.83
2019-01-12T06:58:29.643Z,1017.86
2019-01-12T06:59:38.590Z,1017.82
2019-01-12T07:00:47.285Z,1017.78
2019-01-12T07:01:57.024Z,1017.77
2019-01-12T07:03:05.725Z,1017.74
2019-01-12T07:04:15.140Z,1017.7
2019-01-12T07:05:24.836Z,1017.7
2019-01-12T07:06:34.545Z,1017.66
2019-01-12T07:07:44.221Z,1017.65
2019-01-12T07:08:53.717Z,1017.66
2019-01-12T07:10:02.953Z,1017.61
2019-01-12T07:11:12.125Z,1017.59
2019-01-12T07:12:22.064Z,1017.56
2019-01-12T07:13:31.491Z,1017.55
2019-01-12T07:14:40.934Z,1017.55
2019-01-12T07:15:49.603Z,1017.5
2019-01-12T07:16:58.785Z,1017.55
2019-01-12T07:18:08.914Z,1017.52
2019-01-12T07:19:18.995Z,1017.53
2019-01-12T07:20:28.181Z,1017.56
2019-01-12T07:21:37.850Z,1017.52
2019-01-12T07:22:46.571Z,1017.52
2019-01-12T07:23:55.522Z,1017.52
2019-01-12T07:25:04.718Z,1017.56
2019-01-12T07:26:17.475Z,1017.54
2019-01-12T07:27:27.288Z,1017.56
2019-01-12T07:28:36.486Z,1017.54
2019-01-12T07:29:46.173Z,1017.56
2019-01-12T07:30:55.397Z,1017.58
2019-01-12T07:32:04.608Z,1017.59
2019-01-12T07:33:14.039Z,1017.62
2019-01-12T07:34:23.471Z,1017.59
2019-01-12T07:35:32.894Z,1017.6
2019-01-12T07:36:41.583Z,1017.58
2019-01-12T07:37:51.009Z,1017.6
2019-01-12T07:39:00.471Z,1017.56
2019-01-12T07:40:10.199Z,1017.56
2019-01-12T07:41:19.120Z,1017.56
2019-01-12T07:42:28.810Z,1017.59
2019-01-12T07:43:37.998Z,1017.57
2019-01-12T07:44:47.680Z,1017.59
2019-01-12T07:45:57.364Z,1017.61
2019-01-12T07:47:06.040Z,1017.58
2019-01-12T07:48:15.223Z,1017.57
2019-01-12T07:49:24.673Z,1017.53
2019-01-12T07:50:34.472Z,1017.5
2019-01-12T07:51:44.428Z,1017.49
2019-01-12T07:52:53.624Z,1017.45
2019-01-12T07:54:03.587Z,1017.47
2019-01-12T07:55:13.016Z,1017.43
2019-01-12T07:56:24.520Z,1017.42
2019-01-12T07:57:33.657Z,1017.47
2019-01-12T07:58:43.351Z,1017.38
2019-01-12T07:59:52.356Z,1017.38
2019-01-12T08:01:02.719Z,1017.34
2019-01-12T08:02:11.684Z,1017.33
2019-01-12T08:03:20.608Z,1017.32
2019-01-12T08:04:30.277Z,1017.28
2019-01-12T08:05:39.461Z,1017.31
2019-01-12T08:06:49.194Z,1017.31
2019-01-12T08:07:59.134Z,1017.26
2019-01-12T08:09:08.825Z,1017.25
2019-01-12T08:10:17.765Z,1017.2
2019-01-12T08:11:27.594Z,1017.15
2019-01-12T08:12:36.774Z,1017.19
2019-01-12T08:13:46.199Z,1017.14
2019-01-12T08:14:55.392Z,1017.17
2019-01-12T08:16:04.088Z,1017.15
2019-01-12T08:17:12.770Z,1017.14
2019-01-12T08:18:21.745Z,1017.07
2019-01-12T08:19:30.679Z,1017.07
2019-01-12T08:20:39.640Z,1017.02
2019-01-12T08:21:49.318Z,1016.99
2019-01-12T08:22:58.248Z,1017.01
2019-01-12T08:24:07.887Z,1017.04
2019-01-12T08:25:17.314Z,1017.03
2019-01-12T08:26:31.122Z,1016.99
2019-01-12T08:27:40.925Z,1016.96
2019-01-12T08:28:50.617Z,1016.91
2019-01-12T08:29:59.795Z,1016.87
2019-01-12T08:31:09.498Z,1016.87
2019-01-12T08:32:19.747Z,1016.8
2019-01-12T08:33:28.936Z,1016.81
2019-01-12T08:34:38.123Z,1016.7
2019-01-12T08:35:47.070Z,1016.72
2019-01-12T08:36:56.262Z,1016.76
2019-01-12T08:38:05.461Z,1016.75
2019-01-12T08:39:14.927Z,1016.72
2019-01-12T08:40:24.355Z,1016.7
2019-01-12T08:41:33.809Z,1016.65
2019-01-12T08:42:43.501Z,1016.62
2019-01-12T08:43:52.965Z,1016.56
2019-01-12T08:45:02.146Z,1016.56
2019-01-12T08:46:11.581Z,1016.5
2019-01-12T08:47:20.769Z,1016.43
2019-01-12T08:48:30.210Z,1016.43
2019-01-12T08:49:39.891Z,1016.34
2019-01-12T08:50:48.585Z,1016.29
2019-01-12T08:51:58.028Z,1016.37
2019-01-12T08:53:07.209Z,1016.37
2019-01-12T08:54:16.638Z,1016.34
2019-01-12T08:55:26.296Z,1016.37
2019-01-12T08:56:38.297Z,1016.4
2019-01-12T08:57:47.737Z,1016.38
2019-01-12T08:58:56.675Z,1016.41
2019-01-12T09:00:06.104Z,1016.48
2019-01-12T09:01:15.050Z,1016.54
2019-01-12T09:02:24.217Z,1016.54
2019-01-12T09:03:33.133Z,1016.53
2019-01-12T09:04:43.474Z,1016.52
2019-01-12T09:05:53.185Z,1016.63
2019-01-12T09:07:02.122Z,1016.65
2019-01-12T09:08:11.894Z,1016.7
2019-01-12T09:09:21.587Z,1016.67
2019-01-12T09:10:30.754Z,1016.65
2019-01-12T09:11:39.692Z,1016.61
2019-01-12T09:12:48.943Z,1016.54
2019-01-12T09:13:57.870Z,1016.42
2019-01-12T09:15:07.315Z,1016.39
2019-01-12T09:16:15.998Z,1016.37
2019-01-12T09:17:25.192Z,1016.32
2019-01-12T09:18:34.877Z,1016.31
2019-01-12T09:19:44.330Z,1016.32
2019-01-12T09:20:53.515Z,1016.32
2019-01-12T09:22:02.699Z,1016.27
2019-01-12T09:23:12.925Z,1016.24
2019-01-12T09:24:22.362Z,1016.13
2019-01-12T09:25:31.828Z,1016.18
2019-01-12T09:26:44.809Z,1016.19
2019-01-12T09:27:54.143Z,1016.2
2019-01-12T09:29:04.083Z,1016.2
2019-01-12T09:30:14.025Z,1016.11
2019-01-12T09:31:23.725Z,1016.07
2019-01-12T09:32:33.188Z,1016.03
2019-01-12T09:33:42.873Z,1016.05
2019-01-12T09:34:51.781Z,1016.03
2019-01-12T09:36:01.203Z,1015.96
2019-01-12T09:37:10.381Z,1015.97
2019-01-12T09:38:19.311Z,1015.99
2019-01-12T09:39:28.486Z,1016
2019-01-12T09:40:37.665Z,1015.96
2019-01-12T09:41:47.344Z,1016.02
2019-01-12T09:42:56.278Z,1015.97
2019-01-12T09:44:06.217Z,1016.01
2019-01-12T09:45:15.397Z,1016.01
2019-01-12T09:46:25.087Z,1015.99
2019-01-12T09:47:34.545Z,1015.96
2019-01-12T09:48:44.239Z,1015.94
2019-01-12T09:49:53.180Z,1015.89
2019-01-12T09:51:02.658Z,1015.91
2019-01-12T09:52:12.091Z,1015.94
2019-01-12T09:53:21.555Z,1015.94
2019-01-12T09:54:30.744Z,1015.93
2019-01-12T09:55:40.673Z,1015.96
2019-01-12T09:56:51.808Z,1015.91
2019-01-12T09:58:01.692Z,1015.9
2019-01-12T09:59:10.385Z,1015.87
2019-01-12T10:00:19.817Z,1015.86
2019-01-12T10:01:29.507Z,1015.88
2019-01-12T10:02:38.448Z,1015.86
2019-01-12T10:03:48.375Z,1015.85
2019-01-12T10:04:57.547Z,1015.87
2019-01-12T10:06:06.984Z,1015.82
2019-01-12T10:07:16.465Z,1015.76
2019-01-12T10:08:25.896Z,1015.74
2019-01-12T10:09:34.823Z,1015.75
2019-01-12T10:10:44.000Z,1015.75
2019-01-12T10:11:52.950Z,1015.63
2019-01-12T10:13:01.882Z,1015.64
2019-01-12T10:14:11.340Z,1015.58
2019-01-12T10:15:20.781Z,1015.54
2019-01-12T10:16:30.697Z,1015.56
2019-01-12T10:17:40.180Z,1015.57
2019-01-12T10:18:49.359Z,1015.57
2019-01-12T10:19:58.563Z,1015.49
2019-01-12T10:21:07.501Z,1015.39
2019-01-12T10:22:16.206Z,1015.38
2019-01-12T10:23:31.229Z,1015.32
2019-01-12T10:24:40.426Z,1015.29
2019-01-12T10:25:49.615Z,1015.28
2019-01-12T10:26:59.559Z,1015.27
2019-01-12T10:28:09.288Z,1015.21
2019-01-12T10:29:18.490Z,1015.25
2019-01-12T10:30:28.174Z,1015.24
2019-01-12T10:31:37.364Z,1015.16
2019-01-12T10:32:46.784Z,1015.14
2019-01-12T10:33:56.046Z,1015.01
2019-01-12T10:35:04.982Z,1014.97
2019-01-12T10:36:14.452Z,1014.91
2019-01-12T10:37:23.641Z,1014.87
2019-01-12T10:38:32.571Z,1014.93
2019-01-12T10:39:41.996Z,1015.02
2019-01-12T10:40:51.187Z,1015.03
2019-01-12T10:42:00.635Z,1015.06
2019-01-12T10:43:09.591Z,1015
2019-01-12T10:44:18.518Z,1014.96
2019-01-12T10:45:27.938Z,1014.91
2019-01-12T10:46:37.664Z,1014.88
2019-01-12T10:47:47.365Z,1014.89
2019-01-12T10:48:56.298Z,1014.83
2019-01-12T10:50:05.522Z,1014.89
2019-01-12T10:51:15.267Z,1014.91
2019-01-12T10:52:24.986Z,1014.92
2019-01-12T10:53:34.182Z,1014.92
2019-01-12T10:54:43.615Z,1014.89
2019-01-12T10:55:53.305Z,1014.84
2019-01-12T10:57:05.530Z,1014.85
2019-01-12T10:58:15.197Z,1014.86
2019-01-12T10:59:24.626Z,1014.87
2019-01-12T11:00:34.069Z,1014.81
2019-01-12T11:01:43.484Z,1014.83
2019-01-12T11:02:53.506Z,1014.87
2019-01-12T11:04:02.932Z,1014.82
2019-01-12T11:05:12.359Z,1014.74
2019-01-12T11:06:21.785Z,1014.74
2019-01-12T11:07:30.951Z,1014.74
2019-01-12T11:08:40.394Z,1014.69
2019-01-12T11:09:49.864Z,1014.67
2019-01-12T11:11:04.970Z,1014.62
2019-01-12T11:12:14.403Z,1014.6
2019-01-12T11:13:23.344Z,1014.6
2019-01-12T11:14:32.775Z,1014.56
2019-01-12T11:15:41.966Z,1014.54
2019-01-12T11:16:51.153Z,1014.48
2019-01-12T11:18:01.117Z,1014.54
2019-01-12T11:19:10.557Z,1014.46
2019-01-12T11:20:19.735Z,1014.48
2019-01-12T11:21:29.163Z,1014.44
2019-01-12T11:22:38.079Z,1014.36
2019-01-12T11:23:47.275Z,1014.37
2019-01-12T11:24:56.307Z,1014.34
2019-01-12T11:26:05.269Z,1014.31
2019-01-12T11:27:14.967Z,1014.26
2019-01-12T11:28:24.665Z,1014.23
2019-01-12T11:29:33.838Z,1014.32
2019-01-12T11:30:43.283Z,1014.21
2019-01-12T11:31:53.008Z,1014.18
2019-01-12T11:33:02.225Z,1014.19
2019-01-12T11:34:11.973Z,1014.1
2019-01-12T11:35:21.402Z,1014.08
2019-01-12T11:36:30.087Z,1014.05
2019-01-12T11:37:39.526Z,1014.03
2019-01-12T11:38:48.709Z,1014.03
2019-01-12T11:39:57.916Z,1014.11
2019-01-12T11:41:06.896Z,1014.06
2019-01-12T11:42:17.182Z,1014.13
2019-01-12T11:43:26.621Z,1014.08
2019-01-12T11:44:36.079Z,1014.08
2019-01-12T11:45:45.284Z,1014.08
2019-01-12T11:46:55.725Z,1013.98
2019-01-12T11:48:05.175Z,1014.07
2019-01-12T11:49:14.348Z,1014.04
2019-01-12T11:50:23.803Z,1014
2019-01-12T11:51:32.990Z,1013.98
2019-01-12T11:52:41.676Z,1013.9
2019-01-12T11:53:50.855Z,1013.85
2019-01-12T11:55:00.306Z,1013.85
2019-01-12T11:56:09.770Z,1013.81
2019-01-12T11:57:19.441Z,1013.74
2019-01-12T11:58:28.896Z,1013.58
2019-01-12T11:59:38.985Z,1013.74
2019-01-12T12:00:48.372Z,1013.68
2019-01-12T12:01:57.564Z,1013.71
2019-01-12T12:03:07.008Z,1013.66
2019-01-12T12:04:16.447Z,1013.72
2019-01-12T12:05:25.620Z,1013.56
2019-01-12T12:06:35.033Z,1013.6
2019-01-12T12:07:43.965Z,1013.57
2019-01-12T12:08:53.389Z,1013.5
2019-01-12T12:10:02.806Z,1013.43
2019-01-12T12:11:12.508Z,1013.42
2019-01-12T12:12:21.929Z,1013.39
2019-01-12T12:13:31.412Z,1013.26
2019-01-12T12:14:40.594Z,1013.19
2019-01-12T12:15:49.774Z,1013.17
2019-01-12T12:16:58.985Z,1013.13
2019-01-12T12:18:08.187Z,1013.04
2019-01-12T12:19:17.661Z,1013.05
2019-01-12T12:20:27.103Z,1013.1
2019-01-12T12:21:36.307Z,1013.03
2019-01-12T12:22:45.991Z,1013.01
2019-01-12T12:23:54.684Z,1012.98
2019-01-12T12:25:03.618Z,1012.91
2019-01-12T12:26:12.814Z,1012.91
2019-01-12T12:27:25.919Z,1012.92
2019-01-12T12:28:35.731Z,1012.91
2019-01-12T12:29:44.686Z,1012.89
2019-01-12T12:30:54.381Z,1012.81
2019-01-12T12:32:03.571Z,1012.78
2019-01-12T12:33:12.551Z,1012.69
2019-01-12T12:34:21.727Z,1012.71
2019-01-12T12:35:37.456Z,1012.76
2019-01-12T12:36:46.578Z,1012.66
2019-01-12T12:37:56.428Z,1012.63
2019-01-12T12:39:05.650Z,1012.49
2019-01-12T12:40:15.076Z,1012.51
2019-01-12T12:41:23.779Z,1012.47
2019-01-12T12:42:32.965Z,1012.43
2019-01-12T12:43:42.879Z,1012.38
2019-01-12T12:44:52.313Z,1012.33
2019-01-12T12:46:01.241Z,1012.3
2019-01-12T12:47:10.929Z,1012.27
2019-01-12T12:48:21.146Z,1012.31
2019-01-12T12:49:30.318Z,1012.21
2019-01-12T12:50:39.760Z,1012.18
2019-01-12T12:51:49.485Z,1012.2
2019-01-12T12:52:58.933Z,1012.21
2019-01-12T12:54:08.607Z,1012.16
2019-01-12T12:55:18.041Z,1012.14
2019-01-12T12:56:27.758Z,1012.15
2019-01-12T12:57:37.193Z,1012.1
2019-01-12T12:58:46.134Z,1012.09
2019-01-12T12:59:55.813Z,1012.06
2019-01-12T13:01:05.498Z,1012.03
2019-01-12T13:02:14.690Z,1012.05
2019-01-12T13:03:23.866Z,1011.99
2019-01-12T13:04:33.053Z,1011.99
2019-01-12T13:05:41.986Z,1011.94
2019-01-12T13:06:51.166Z,1011.93
2019-01-12T13:08:01.088Z,1011.94
2019-01-12T13:09:10.269Z,1011.82
2019-01-12T13:10:19.701Z,1011.82
2019-01-12T13:11:30.069Z,1011.79
2019-01-12T13:12:40.009Z,1011.77
2019-01-12T13:13:49.210Z,1011.88
2019-01-12T13:14:58.391Z,1011.8
2019-01-12T13:16:08.338Z,1011.84
2019-01-12T13:17:17.767Z,1011.76
2019-01-12T13:18:26.961Z,1011.81
2019-01-12T13:19:36.665Z,1011.74
2019-01-12T13:20:45.855Z,1011.75
2019-01-12T13:21:55.050Z,1011.72
2019-01-12T13:23:04.778Z,1011.65
2019-01-12T13:24:14.450Z,1011.71
2019-01-12T13:25:23.673Z,1011.72
2019-01-12T13:26:34.519Z,1011.66
2019-01-12T13:27:43.708Z,1011.65
2019-01-12T13:28:53.137Z,1011.64
2019-01-12T13:30:02.579Z,1011.57
2019-01-12T13:31:12.250Z,1011.56
2019-01-12T13:32:21.913Z,1011.5
2019-01-12T13:33:31.346Z,1011.5
2019-01-12T13:34:40.825Z,1011.48
2019-01-12T13:35:50.262Z,1011.48
2019-01-12T13:36:59.448Z,1011.48
2019-01-12T13:38:10.023Z,1011.41
2019-01-12T13:39:19.189Z,1011.38
2019-01-12T13:40:34.450Z,1011.38
2019-01-12T13:41:43.673Z,1011.33
2019-01-12T13:42:53.355Z,1011.34
2019-01-12T13:44:02.819Z,1011.38
2019-01-12T13:45:12.863Z,1011.3
2019-01-12T13:46:21.799Z,1011.34
2019-01-12T13:47:31.751Z,1011.35
2019-01-12T13:48:41.633Z,1011.28
2019-01-12T13:49:50.451Z,1011.37
2019-01-12T13:51:00.023Z,1011.29
2019-01-12T13:52:09.747Z,1011.21
2019-01-12T13:53:19.427Z,1011.22
2019-01-12T13:54:28.630Z,1011.19
2019-01-12T13:55:39.280Z,1011.17
2019-01-12T13:56:48.717Z,1011.18
2019-01-12T13:57:58.161Z,1011.07
2019-01-12T13:59:07.597Z,1011.13
2019-01-12T14:00:16.887Z,1011.15
2019-01-12T14:01:26.324Z,1011.06
2019-01-12T14:02:35.773Z,1011.08
2019-01-12T14:03:44.940Z,1011.03